首页
METAR-TAF:

METAR-TAF

机场 :

利物浦约翰·列侬机场

利物浦, 英格兰

纬度: 53-20N, 经度: 002-51W, 海拔: 26米

当前天气观测

该预报发布于32分钟前的19:50 UTC
风速7节,风向北转西北,在西转西北之间变化
温度 12°C
湿度 58%
气压 1018 hPa
能见度10公里或以上
多云层高于4600英尺

METAR: EGGP 261950Z 34007KT 300V010 9999 BKN046 12/04 Q1018

时间: 21:22 (20:22 UTC)

预报

该预报发布于3小时和28分钟前的16:54 UTC
预报有效从26日的 18点(UTC)到 27日的 18点(UTC)
风速10节,风向
能见度10公里或以上
少量云层高于4500英尺

TAF: EGGP 261654Z 2618/2718 35010KT 9999 FEW045

超过4000个机场的气象观测和天气预报(METAR&TAF报告)。

可查询的气象台以黄色和红色小点在地图上表示。

将鼠标移到小点上方,可查看气象台名称。

然后点击查看天气观测和预报。

如需切换地图:点击带黑十字的绿色按钮放大地图;点击带横线的绿色按钮缩小地图;或者点击绿色箭头查看邻近地区的地图。


METAR-TAF: